sensor_id;sensor_type;location;lat;lon;timestamp;temperature;humidity
28069;DHT22;15382;47.578;8.086;2022-12-05T00:07:28;2.60;99.90
28069;DHT22;15382;47.578;8.086;2022-12-05T00:17:30;2.60;99.90
28069;DHT22;15382;47.578;8.086;2022-12-05T00:27:32;2.60;99.90
28069;DHT22;15382;47.578;8.086;2022-12-05T00:37:33;2.50;99.90
28069;DHT22;15382;47.578;8.086;2022-12-05T00:47:34;2.50;99.90
28069;DHT22;15382;47.578;8.086;2022-12-05T00:57:36;2.50;99.90
28069;DHT22;15382;47.578;8.086;2022-12-05T01:07:36;2.60;99.90
28069;DHT22;15382;47.578;8.086;2022-12-05T01:17:37;2.70;99.90
28069;DHT22;15382;47.578;8.086;2022-12-05T01:27:38;2.70;99.90
28069;DHT22;15382;47.578;8.086;2022-12-05T01:37:39;2.50;99.90
28069;DHT22;15382;47.578;8.086;2022-12-05T01:47:40;2.60;99.90
28069;DHT22;15382;47.578;8.086;2022-12-05T01:57:41;2.50;99.90
28069;DHT22;15382;47.578;8.086;2022-12-05T02:07:42;2.40;99.90
28069;DHT22;15382;47.578;8.086;2022-12-05T02:49:21;2.50;99.90
28069;DHT22;15382;47.578;8.086;2022-12-05T02:59:23;2.50;99.90
28069;DHT22;15382;47.578;8.086;2022-12-05T03:30:03;2.70;99.90
28069;DHT22;15382;47.578;8.086;2022-12-05T03:50:33;2.40;99.90
28069;DHT22;15382;47.578;8.086;2022-12-05T04:00:39;2.50;99.90
28069;DHT22;15382;47.578;8.086;2022-12-05T04:10:42;2.60;99.90
28069;DHT22;15382;47.578;8.086;2022-12-05T04:20:51;2.60;99.90
28069;DHT22;15382;47.578;8.086;2022-12-05T04:31:23;2.70;99.90
28069;DHT22;15382;47.578;8.086;2022-12-05T04:41:28;2.70;99.90
28069;DHT22;15382;47.578;8.086;2022-12-05T04:51:33;2.70;99.90
28069;DHT22;15382;47.578;8.086;2022-12-05T05:01:41;2.70;99.90
28069;DHT22;15382;47.578;8.086;2022-12-05T05:11:43;2.80;99.90
28069;DHT22;15382;47.578;8.086;2022-12-05T05:21:44;2.70;99.90
28069;DHT22;15382;47.578;8.086;2022-12-05T05:31:45;2.80;99.90
28069;DHT22;15382;47.578;8.086;2022-12-05T05:41:45;2.70;99.90
28069;DHT22;15382;47.578;8.086;2022-12-05T05:51:46;2.70;99.90
28069;DHT22;15382;47.578;8.086;2022-12-05T06:01:47;2.80;99.90
28069;DHT22;15382;47.578;8.086;2022-12-05T06:11:48;2.80;99.90
28069;DHT22;15382;47.578;8.086;2022-12-05T06:21:49;2.90;99.90
28069;DHT22;15382;47.578;8.086;2022-12-05T06:31:50;2.80;99.90
28069;DHT22;15382;47.578;8.086;2022-12-05T06:41:51;2.80;99.90
28069;DHT22;15382;47.578;8.086;2022-12-05T06:51:52;3.00;99.90
28069;DHT22;15382;47.578;8.086;2022-12-05T07:01:53;3.00;99.90
28069;DHT22;15382;47.578;8.086;2022-12-05T07:11:54;3.00;99.90
28069;DHT22;15382;47.578;8.086;2022-12-05T07:21:54;2.90;99.90
28069;DHT22;15382;47.578;8.086;2022-12-05T07:31:55;2.80;99.90
28069;DHT22;15382;47.578;8.086;2022-12-05T07:41:56;2.80;99.90
28069;DHT22;15382;47.578;8.086;2022-12-05T07:51:57;3.00;99.90
28069;DHT22;15382;47.578;8.086;2022-12-05T08:01:57;3.10;99.90
28069;DHT22;15382;47.578;8.086;2022-12-05T08:11:58;3.20;99.90
28069;DHT22;15382;47.578;8.086;2022-12-05T08:21:59;3.10;99.90
28069;DHT22;15382;47.578;8.086;2022-12-05T08:32:00;3.30;99.90
28069;DHT22;15382;47.578;8.086;2022-12-05T08:42:01;3.20;99.90
28069;DHT22;15382;47.578;8.086;2022-12-05T08:52:02;3.10;99.90
28069;DHT22;15382;47.578;8.086;2022-12-05T09:02:02;3.20;99.90
28069;DHT22;15382;47.578;8.086;2022-12-05T09:12:03;3.40;99.90
28069;DHT22;15382;47.578;8.086;2022-12-05T09:22:04;3.50;99.90
28069;DHT22;15382;47.578;8.086;2022-12-05T09:32:06;3.70;99.90
28069;DHT22;15382;47.578;8.086;2022-12-05T09:52:36;4.00;99.90
28069;DHT22;15382;47.578;8.086;2022-12-05T10:23:28;4.70;99.90
28069;DHT22;15382;47.578;8.086;2022-12-05T10:33:36;4.60;99.90
28069;DHT22;15382;47.578;8.086;2022-12-05T10:43:41;4.80;99.90
28069;DHT22;15382;47.578;8.086;2022-12-05T10:53:45;5.00;99.90
28069;DHT22;15382;47.578;8.086;2022-12-05T11:03:56;5.30;99.90
28069;DHT22;15382;47.578;8.086;2022-12-05T11:14:21;5.40;99.90
28069;DHT22;15382;47.578;8.086;2022-12-05T11:34:44;5.40;99.90
28069;DHT22;15382;47.578;8.086;2022-12-05T11:45:02;5.40;99.90
28069;DHT22;15382;47.578;8.086;2022-12-05T11:55:22;5.70;99.90
28069;DHT22;15382;47.578;8.086;2022-12-05T12:06:02;5.90;99.90
28069;DHT22;15382;47.578;8.086;2022-12-05T12:16:29;6.90;99.90
28069;DHT22;15382;47.578;8.086;2022-12-05T12:26:46;8.00;99.90
28069;DHT22;15382;47.578;8.086;2022-12-05T12:47:35;9.40;99.90
28069;DHT22;15382;47.578;8.086;2022-12-05T13:07:58;8.50;99.90
28069;DHT22;15382;47.578;8.086;2022-12-05T13:18:03;8.00;99.90
28069;DHT22;15382;47.578;8.086;2022-12-05T13:28:08;7.50;99.90
28069;DHT22;15382;47.578;8.086;2022-12-05T13:38:29;6.90;99.90
28069;DHT22;15382;47.578;8.086;2022-12-05T13:49:01;8.10;99.90
28069;DHT22;15382;47.578;8.086;2022-12-05T13:59:03;9.10;99.90
28069;DHT22;15382;47.578;8.086;2022-12-05T14:09:28;9.00;99.90
28069;DHT22;15382;47.578;8.086;2022-12-05T14:19:52;8.60;99.90
28069;DHT22;15382;47.578;8.086;2022-12-05T14:40:32;7.40;99.90
28069;DHT22;15382;47.578;8.086;2022-12-05T15:00:41;6.80;99.90
28069;DHT22;15382;47.578;8.086;2022-12-05T15:10:42;6.60;99.90
28069;DHT22;15382;47.578;8.086;2022-12-05T15:30:57;5.70;99.90
28069;DHT22;15382;47.578;8.086;2022-12-05T15:40:58;5.20;99.90
28069;DHT22;15382;47.578;8.086;2022-12-05T15:50:59;5.00;99.90
28069;DHT22;15382;47.578;8.086;2022-12-05T16:01:21;4.80;99.90
28069;DHT22;15382;47.578;8.086;2022-12-05T16:11:22;4.30;99.90
28069;DHT22;15382;47.578;8.086;2022-12-05T16:21:36;4.10;99.90
28069;DHT22;15382;47.578;8.086;2022-12-05T16:31:38;3.70;99.90
28069;DHT22;15382;47.578;8.086;2022-12-05T16:41:39;3.60;99.90
28069;DHT22;15382;47.578;8.086;2022-12-05T16:51:44;3.20;99.90
28069;DHT22;15382;47.578;8.086;2022-12-05T17:01:45;2.70;99.90
28069;DHT22;15382;47.578;8.086;2022-12-05T17:11:48;2.80;99.90
28069;DHT22;15382;47.578;8.086;2022-12-05T17:21:50;2.80;99.90
28069;DHT22;15382;47.578;8.086;2022-12-05T17:31:51;3.00;99.90
28069;DHT22;15382;47.578;8.086;2022-12-05T17:41:52;3.30;99.90
28069;DHT22;15382;47.578;8.086;2022-12-05T17:51:53;3.40;99.90
28069;DHT22;15382;47.578;8.086;2022-12-05T18:01:54;3.40;99.90
28069;DHT22;15382;47.578;8.086;2022-12-05T18:11:55;3.20;99.90
28069;DHT22;15382;47.578;8.086;2022-12-05T18:21:56;3.10;99.90
28069;DHT22;15382;47.578;8.086;2022-12-05T18:31:57;2.70;99.90
28069;DHT22;15382;47.578;8.086;2022-12-05T18:41:58;2.20;99.90
28069;DHT22;15382;47.578;8.086;2022-12-05T18:51:58;1.90;99.90
28069;DHT22;15382;47.578;8.086;2022-12-05T19:01:59;2.00;99.90
28069;DHT22;15382;47.578;8.086;2022-12-05T19:12:00;1.90;99.90
28069;DHT22;15382;47.578;8.086;2022-12-05T19:22:01;1.90;99.90
28069;DHT22;15382;47.578;8.086;2022-12-05T19:32:02;1.60;99.90
28069;DHT22;15382;47.578;8.086;2022-12-05T19:42:02;1.70;99.90
28069;DHT22;15382;47.578;8.086;2022-12-05T19:52:03;1.70;99.90
28069;DHT22;15382;47.578;8.086;2022-12-05T20:02:04;1.60;99.90
28069;DHT22;15382;47.578;8.086;2022-12-05T20:12:05;1.60;99.90
28069;DHT22;15382;47.578;8.086;2022-12-05T20:22:06;1.50;99.90
28069;DHT22;15382;47.578;8.086;2022-12-05T20:32:06;1.60;99.90
28069;DHT22;15382;47.578;8.086;2022-12-05T20:42:08;1.50;99.90
28069;DHT22;15382;47.578;8.086;2022-12-05T20:52:09;1.50;99.90
28069;DHT22;15382;47.578;8.086;2022-12-05T21:02:10;1.70;99.90
28069;DHT22;15382;47.578;8.086;2022-12-05T21:12:10;1.80;99.90
28069;DHT22;15382;47.578;8.086;2022-12-05T21:22:11;1.80;99.90
28069;DHT22;15382;47.578;8.086;2022-12-05T21:32:12;1.90;99.90
28069;DHT22;15382;47.578;8.086;2022-12-05T21:42:13;1.90;99.90
28069;DHT22;15382;47.578;8.086;2022-12-05T21:52:13;1.90;99.90
28069;DHT22;15382;47.578;8.086;2022-12-05T22:02:14;1.90;99.90
28069;DHT22;15382;47.578;8.086;2022-12-05T22:12:15;1.90;99.90
28069;DHT22;15382;47.578;8.086;2022-12-05T22:22:16;1.90;99.90
28069;DHT22;15382;47.578;8.086;2022-12-05T22:32:17;2.00;99.90
28069;DHT22;15382;47.578;8.086;2022-12-05T22:42:17;2.10;99.90
28069;DHT22;15382;47.578;8.086;2022-12-05T22:52:18;2.10;99.90
28069;DHT22;15382;47.578;8.086;2022-12-05T23:02:19;1.80;99.90
28069;DHT22;15382;47.578;8.086;2022-12-05T23:12:20;1.40;99.90
28069;DHT22;15382;47.578;8.086;2022-12-05T23:22:20;1.00;99.90
28069;DHT22;15382;47.578;8.086;2022-12-05T23:32:21;0.70;99.90
28069;DHT22;15382;47.578;8.086;2022-12-05T23:42:22;0.50;99.90
28069;DHT22;15382;47.578;8.086;2022-12-05T23:52:23;0.30;99.90
